Strona główna
METAR-TAF:

METAR-TAF

Lotnisko :

Port lotniczy Kangerlussuaq

Kangerlussuaq, Grenlandia

Szerokość geograficzna: 67-01N, Długość geograficzna: 050-42W, wysokość: 50 m

Aktualna obserwacja pogody

Raport powstał 58 minut temu, godzina 22:50 UTC
Wiatr 9 kt od północny wschód
Temperatura 0°C
Wilgotność 43%
Ciśnienie 1025 hPa
Widzialność 10 km lub więcej

METAR: BGSF 172250Z AUTO 05009KT 9999NDV NCD 00/M11 Q1025

czas: 21:48 (23:48 UTC)

Prognoza

Raport powstał 52 minut temu, godzina 22:56 UTC
Prognoza ważna od 18 godzina 00 UTC do 19 godzina 01 UTC
Wiatr 8 kt od północny wschód
Widzialność 10 km lub więcej
Mało chmury na wysokości 20000 ft
Przejściowo
od 18 godzina 14 UTC do 18 godzina 22 UTC
Wiatr 8 kt z kierunków zmiennych

TAF: BGSF 172256Z 1800/1901 05008KT 9999 FEW200 TEMPO 1814/1822 VRB08KT

Obserwacja i prognoza pogody dla ponad 4000 lotnisk (raport METAR i TAF).

Dostępne stacje oznaczono żółtymi i czerwonymi punktami na mapie.

Najedź kursorem aby zobaczyć nazwę stacji.

Kliknij aby zobaczyć obserwacje i prognozy pogody.

Aby zmienić mapę: kliknij na zielony przycisk z czarnym krzyżykiem, aby powiększyć; na zielony przycisk z myślnikiem, aby pomniejszyć; na zielone strzałki, aby przejść do map sąsiednich.


METAR-TAF: